createdAt,value
2017-12-26T00:00:31.531Z,3.53
2017-12-26T00:02:58.919Z,4.10
2017-12-26T00:05:26.299Z,3.70
2017-12-26T00:07:53.690Z,4.00
2017-12-26T00:10:21.067Z,4.30
2017-12-26T00:12:48.508Z,5.60
2017-12-26T00:15:16.868Z,4.63
2017-12-26T00:17:44.254Z,3.90
2017-12-26T00:20:11.681Z,2.90
2017-12-26T00:22:39.231Z,4.10
2017-12-26T00:25:06.594Z,4.07
2017-12-26T00:27:34.023Z,4.50
2017-12-26T00:30:01.399Z,3.50
2017-12-26T00:32:28.817Z,3.00
2017-12-26T00:34:56.198Z,3.47
2017-12-26T00:37:23.590Z,3.37
2017-12-26T00:39:51.075Z,3.70
2017-12-26T00:42:18.463Z,3.77
2017-12-26T00:44:45.851Z,3.93
2017-12-26T00:47:13.375Z,3.90
2017-12-26T00:49:40.758Z,3.67
2017-12-26T00:52:08.134Z,4.40
2017-12-26T00:54:35.510Z,3.90
2017-12-26T00:57:02.895Z,3.67
2017-12-26T00:59:30.285Z,4.37
2017-12-26T01:01:57.685Z,4.40
2017-12-26T01:04:25.074Z,4.33
2017-12-26T01:06:52.470Z,4.17
2017-12-26T01:09:19.847Z,4.87
2017-12-26T01:11:47.270Z,4.53
2017-12-26T01:14:14.666Z,3.83
2017-12-26T01:16:42.103Z,4.83
2017-12-26T01:19:09.500Z,5.43
2017-12-26T01:21:36.882Z,3.60
2017-12-26T01:24:04.278Z,4.90
2017-12-26T01:26:31.668Z,4.13
2017-12-26T01:28:59.049Z,4.70
2017-12-26T01:31:26.431Z,4.50
2017-12-26T01:33:53.806Z,5.40
2017-12-26T01:36:21.237Z,4.13
2017-12-26T01:38:48.587Z,3.73
2017-12-26T01:41:15.972Z,4.63
2017-12-26T01:43:43.358Z,4.60
2017-12-26T01:46:22.782Z,4.23
2017-12-26T01:48:50.150Z,4.50
2017-12-26T01:51:17.530Z,5.00
2017-12-26T01:53:44.923Z,5.17
2017-12-26T01:56:12.360Z,5.23
2017-12-26T01:58:39.746Z,5.40
2017-12-26T02:01:07.131Z,5.07
2017-12-26T02:03:34.523Z,5.93
2017-12-26T02:06:01.903Z,4.60
2017-12-26T02:08:29.287Z,4.83
2017-12-26T02:10:56.675Z,5.20
2017-12-26T02:13:24.065Z,5.50
2017-12-26T02:15:51.461Z,5.80
2017-12-26T02:18:18.879Z,5.13
2017-12-26T02:20:46.210Z,5.60
2017-12-26T02:23:13.598Z,5.50
2017-12-26T02:25:40.986Z,5.40
2017-12-26T02:28:08.375Z,6.13
2017-12-26T02:30:35.762Z,5.20
2017-12-26T02:33:03.162Z,5.23
2017-12-26T02:35:30.549Z,6.17
2017-12-26T02:37:57.931Z,6.23
2017-12-26T02:40:25.314Z,5.33
2017-12-26T02:42:52.720Z,7.67
2017-12-26T02:45:20.102Z,8.33
2017-12-26T02:47:47.491Z,6.70
2017-12-26T02:50:14.878Z,5.87
2017-12-26T02:52:42.270Z,6.50
2017-12-26T02:55:09.659Z,7.10
2017-12-26T02:57:37.050Z,5.27
2017-12-26T03:00:04.433Z,5.10
2017-12-26T03:02:31.819Z,4.87
2017-12-26T03:04:59.231Z,12.63
2017-12-26T03:07:26.621Z,5.33
2017-12-26T03:09:53.995Z,6.77
2017-12-26T03:12:21.390Z,8.20
2017-12-26T03:14:48.781Z,6.03
2017-12-26T03:17:16.275Z,7.60
2017-12-26T03:19:43.658Z,7.00
2017-12-26T03:22:11.049Z,7.07
2017-12-26T03:24:38.617Z,6.73
2017-12-26T03:27:06.007Z,8.47
2017-12-26T03:29:33.382Z,7.87
2017-12-26T03:32:00.778Z,10.70
2017-12-26T03:34:28.184Z,10.20
2017-12-26T03:36:55.569Z,8.13
2017-12-26T03:39:22.952Z,9.87
2017-12-26T03:41:50.337Z,11.13
2017-12-26T03:44:17.745Z,11.50
2017-12-26T03:46:45.343Z,10.30
2017-12-26T03:49:12.747Z,10.67
2017-12-26T03:51:40.131Z,8.90
2017-12-26T03:54:07.521Z,8.83
2017-12-26T03:56:34.906Z,9.10
2017-12-26T03:59:02.623Z,8.80
2017-12-26T04:01:30.035Z,12.82
2017-12-26T04:03:57.431Z,10.50
2017-12-26T04:06:24.819Z,9.70
2017-12-26T04:08:52.210Z,11.17
2017-12-26T04:11:19.687Z,11.70
2017-12-26T04:13:47.079Z,10.67
2017-12-26T04:16:14.528Z,11.23
2017-12-26T04:18:41.916Z,10.50
2017-12-26T04:21:09.303Z,10.80
2017-12-26T04:23:36.691Z,9.83
2017-12-26T04:26:04.074Z,11.30
2017-12-26T04:28:31.526Z,11.23
2017-12-26T04:30:58.862Z,11.77
2017-12-26T04:33:26.251Z,8.80
2017-12-26T04:35:53.635Z,11.30
2017-12-26T04:38:21.142Z,11.87
2017-12-26T04:40:48.479Z,10.57
2017-12-26T04:43:15.883Z,11.90
2017-12-26T04:45:43.258Z,9.80
2017-12-26T04:48:10.654Z,10.30
2017-12-26T04:50:38.046Z,10.60
2017-12-26T04:53:05.441Z,10.93
2017-12-26T04:55:32.852Z,12.37
2017-12-26T04:58:00.239Z,10.30
2017-12-26T05:00:27.636Z,10.23
2017-12-26T05:02:55.015Z,12.60
2017-12-26T05:05:22.402Z,13.47
2017-12-26T05:07:49.787Z,9.70
2017-12-26T05:10:17.167Z,11.03
2017-12-26T05:12:44.667Z,12.27
2017-12-26T05:15:12.052Z,10.80
2017-12-26T05:17:39.450Z,10.80
2017-12-26T05:20:06.830Z,10.83
2017-12-26T05:22:34.218Z,10.00
2017-12-26T05:25:01.599Z,10.80
2017-12-26T05:27:28.991Z,10.60
2017-12-26T05:29:56.374Z,12.80
2017-12-26T05:32:23.763Z,10.90
2017-12-26T05:34:51.171Z,11.63
2017-12-26T05:37:18.551Z,11.30
2017-12-26T05:39:45.959Z,15.17
2017-12-26T05:42:13.340Z,12.23
2017-12-26T05:44:40.736Z,12.70
2017-12-26T05:47:08.159Z,11.73
2017-12-26T05:49:35.548Z,10.47
2017-12-26T05:52:02.955Z,10.13
2017-12-26T05:54:30.338Z,9.97
2017-12-26T05:56:57.777Z,8.50
2017-12-26T05:59:25.166Z,10.73
2017-12-26T06:01:52.574Z,9.80
2017-12-26T06:04:19.968Z,11.00
2017-12-26T06:06:47.354Z,9.73
2017-12-26T06:09:14.745Z,9.40
2017-12-26T06:11:42.122Z,10.10
2017-12-26T06:14:09.515Z,9.73
2017-12-26T06:16:36.892Z,8.80
2017-12-26T06:19:04.279Z,11.27
2017-12-26T06:21:31.659Z,10.97
2017-12-26T06:23:59.095Z,8.90
2017-12-26T06:26:26.484Z,10.20
2017-12-26T06:28:53.870Z,10.77
2017-12-26T06:31:21.265Z,9.30
2017-12-26T06:33:48.655Z,12.50
2017-12-26T06:36:16.038Z,12.13
2017-12-26T06:38:43.439Z,9.77
2017-12-26T06:41:10.817Z,9.67
2017-12-26T06:43:38.214Z,10.87
2017-12-26T06:46:05.599Z,7.57
2017-12-26T06:48:32.997Z,9.20
2017-12-26T06:51:00.391Z,11.43
2017-12-26T06:53:27.783Z,8.90
2017-12-26T06:55:55.162Z,8.63
2017-12-26T06:58:22.555Z,9.90
2017-12-26T07:00:49.944Z,7.93
2017-12-26T07:03:17.438Z,10.40
2017-12-26T07:05:44.832Z,9.43
2017-12-26T07:08:12.231Z,9.30
2017-12-26T07:10:39.611Z,10.23
2017-12-26T07:13:07.006Z,9.30
2017-12-26T07:15:34.392Z,9.37
2017-12-26T07:18:01.787Z,10.50
2017-12-26T07:20:34.923Z,8.93
2017-12-26T07:23:02.335Z,9.67
2017-12-26T07:25:29.740Z,10.00
2017-12-26T07:27:57.118Z,11.80
2017-12-26T07:30:24.507Z,9.60
2017-12-26T07:32:51.887Z,9.60
2017-12-26T07:35:19.271Z,9.10
2017-12-26T07:37:46.667Z,10.83
2017-12-26T07:40:14.066Z,9.10
2017-12-26T07:42:41.526Z,11.97
2017-12-26T07:45:09.015Z,8.23
2017-12-26T07:47:36.394Z,11.57
2017-12-26T07:50:03.820Z,11.90
2017-12-26T07:52:31.206Z,15.03
2017-12-26T07:54:58.633Z,14.03
2017-12-26T07:57:26.006Z,10.40
2017-12-26T07:59:53.399Z,14.33
2017-12-26T08:02:20.807Z,11.30
2017-12-26T08:04:48.195Z,10.80
2017-12-26T08:07:15.584Z,11.90
2017-12-26T08:09:42.982Z,11.27
2017-12-26T08:12:10.375Z,11.83
2017-12-26T08:14:37.787Z,15.00
2017-12-26T08:17:05.203Z,12.63
2017-12-26T08:19:32.655Z,10.67
2017-12-26T08:22:00.047Z,13.93
2017-12-26T08:24:27.519Z,11.57
2017-12-26T08:26:54.918Z,11.30
2017-12-26T08:29:22.310Z,13.43
2017-12-26T08:31:49.767Z,10.30
2017-12-26T08:34:17.156Z,11.17
2017-12-26T08:36:44.541Z,18.03
2017-12-26T08:39:11.941Z,13.83
2017-12-26T08:41:39.325Z,11.13
2017-12-26T08:44:06.723Z,12.20
2017-12-26T08:46:34.101Z,8.93
2017-12-26T08:49:01.489Z,10.80
2017-12-26T08:51:28.875Z,14.13
2017-12-26T08:53:56.284Z,12.77
2017-12-26T08:56:23.663Z,16.97
2017-12-26T08:58:51.055Z,13.67
2017-12-26T09:01:18.527Z,11.00
2017-12-26T09:03:45.923Z,12.73
2017-12-26T09:06:13.436Z,13.30
2017-12-26T09:08:40.901Z,10.50
2017-12-26T09:11:08.275Z,13.53
2017-12-26T09:13:35.667Z,10.70
2017-12-26T09:16:03.079Z,11.97
2017-12-26T09:18:30.465Z,8.40
2017-12-26T09:20:57.855Z,6.07
2017-12-26T09:23:25.239Z,10.50
2017-12-26T09:25:52.630Z,9.40
2017-12-26T09:28:20.015Z,7.00
2017-12-26T09:30:47.402Z,5.90
2017-12-26T09:33:14.791Z,5.80
2017-12-26T09:35:42.188Z,4.60
2017-12-26T09:38:09.571Z,10.70
2017-12-26T09:40:37.001Z,5.20
2017-12-26T09:43:04.379Z,5.13
2017-12-26T09:45:31.772Z,5.40
2017-12-26T09:47:59.146Z,4.53
2017-12-26T09:50:26.539Z,4.60
2017-12-26T09:52:53.915Z,4.30
2017-12-26T09:55:21.310Z,4.77
2017-12-26T09:57:48.731Z,3.80
2017-12-26T10:00:16.148Z,5.30
2017-12-26T10:02:44.328Z,4.53
2017-12-26T10:05:11.777Z,4.10
2017-12-26T10:07:39.156Z,3.30
2017-12-26T10:10:06.547Z,4.23
2017-12-26T10:12:33.975Z,4.77
2017-12-26T10:15:01.370Z,4.10
2017-12-26T10:17:28.747Z,4.23
2017-12-26T10:19:56.135Z,4.57
2017-12-26T10:22:23.530Z,4.93
2017-12-26T10:24:50.916Z,4.20
2017-12-26T10:27:18.348Z,3.57
2017-12-26T10:29:45.737Z,3.57
2017-12-26T10:32:13.124Z,5.13
2017-12-26T10:34:40.516Z,3.97
2017-12-26T10:37:07.908Z,2.40
2017-12-26T10:39:35.300Z,3.30
2017-12-26T10:42:02.680Z,2.87
2017-12-26T10:44:30.071Z,2.50
2017-12-26T10:46:57.452Z,2.70
2017-12-26T10:49:24.844Z,2.40
2017-12-26T10:51:52.324Z,2.47
2017-12-26T10:54:19.711Z,2.97
2017-12-26T10:56:47.096Z,2.10
2017-12-26T10:59:14.487Z,2.43
2017-12-26T11:01:41.898Z,3.57
2017-12-26T11:04:09.300Z,2.00
2017-12-26T11:06:36.688Z,2.53
2017-12-26T11:09:04.096Z,2.73
2017-12-26T11:11:31.489Z,3.43
2017-12-26T11:13:58.872Z,2.40
2017-12-26T11:16:26.272Z,1.83
2017-12-26T11:18:53.728Z,2.43
2017-12-26T11:21:21.152Z,1.53
2017-12-26T11:23:48.704Z,1.90
2017-12-26T11:26:16.191Z,1.33
2017-12-26T11:28:43.598Z,1.80
2017-12-26T11:31:10.983Z,1.50
2017-12-26T11:33:38.378Z,1.40
2017-12-26T11:36:05.767Z,1.63
2017-12-26T11:38:33.152Z,1.63
2017-12-26T11:41:00.547Z,1.83
2017-12-26T11:43:27.938Z,2.20
2017-12-26T11:45:55.323Z,1.83
2017-12-26T11:48:22.795Z,1.90
2017-12-26T11:50:50.192Z,2.17
2017-12-26T11:53:17.588Z,2.10
2017-12-26T11:55:45.068Z,1.93
2017-12-26T11:58:12.459Z,2.27
2017-12-26T12:00:39.856Z,2.12
2017-12-26T12:03:07.242Z,2.53
2017-12-26T12:05:34.636Z,1.73
2017-12-26T12:08:02.016Z,1.60
2017-12-26T12:10:29.416Z,1.87
2017-12-26T12:12:56.799Z,2.30
2017-12-26T12:15:23.482Z,2.23
2017-12-26T12:17:50.866Z,1.90
2017-12-26T12:20:18.269Z,2.07
2017-12-26T12:22:45.652Z,2.13
2017-12-26T12:25:13.052Z,2.27
2017-12-26T12:27:40.445Z,3.70
2017-12-26T12:30:07.880Z,2.10
2017-12-26T12:32:35.269Z,2.97
2017-12-26T12:35:02.655Z,2.07
2017-12-26T12:37:30.044Z,2.20
2017-12-26T12:39:57.439Z,1.90
2017-12-26T12:42:24.883Z,2.03
2017-12-26T12:44:52.287Z,5.20
2017-12-26T12:47:19.673Z,2.37
2017-12-26T12:49:47.070Z,2.90
2017-12-26T12:52:14.448Z,1.80
2017-12-26T12:54:41.840Z,2.13
2017-12-26T12:57:09.229Z,5.90
2017-12-26T12:59:36.619Z,2.20
2017-12-26T13:02:04.039Z,2.33
2017-12-26T13:04:31.419Z,2.27
2017-12-26T13:06:58.821Z,10.10
2017-12-26T13:09:26.210Z,5.73
2017-12-26T13:11:53.608Z,2.20
2017-12-26T13:14:20.999Z,2.60
2017-12-26T13:16:48.516Z,2.37
2017-12-26T13:19:15.904Z,2.40
2017-12-26T13:21:43.308Z,2.07
2017-12-26T13:24:10.704Z,2.50
2017-12-26T13:26:38.094Z,6.17
2017-12-26T13:29:05.482Z,2.20
2017-12-26T13:31:32.868Z,2.77
2017-12-26T13:34:00.263Z,3.27
2017-12-26T13:36:27.704Z,3.03
2017-12-26T13:38:55.079Z,2.60
2017-12-26T13:41:22.463Z,1.57
2017-12-26T13:43:49.860Z,4.67
2017-12-26T13:46:17.239Z,3.57
2017-12-26T13:48:44.643Z,4.60
2017-12-26T13:51:12.056Z,2.50
2017-12-26T13:53:39.452Z,2.37
2017-12-26T13:56:06.848Z,4.30
2017-12-26T13:58:34.227Z,1.83
2017-12-26T14:01:01.623Z,2.73
2017-12-26T14:03:29.007Z,2.30
2017-12-26T14:05:56.481Z,3.03
2017-12-26T14:08:23.855Z,3.33
2017-12-26T14:10:51.248Z,6.23
2017-12-26T14:13:18.631Z,2.73
2017-12-26T14:15:46.105Z,2.00
2017-12-26T14:18:13.480Z,2.40
2017-12-26T14:20:40.866Z,3.37
2017-12-26T14:23:08.242Z,3.63
2017-12-26T14:25:35.634Z,2.60
2017-12-26T14:28:03.010Z,1.90
2017-12-26T14:30:30.398Z,4.00
2017-12-26T14:32:57.785Z,2.90
2017-12-26T14:35:25.258Z,2.53
2017-12-26T14:37:52.658Z,7.33
2017-12-26T14:40:20.135Z,3.37
2017-12-26T14:42:47.514Z,2.77
2017-12-26T14:45:14.932Z,2.00
2017-12-26T14:47:42.307Z,2.70
2017-12-26T14:50:09.700Z,4.97
2017-12-26T14:52:37.077Z,2.20
2017-12-26T14:55:04.466Z,3.50
2017-12-26T14:57:31.855Z,8.70
2017-12-26T14:59:59.240Z,2.33
2017-12-26T15:02:26.627Z,2.10
2017-12-26T15:04:54.012Z,1.80
2017-12-26T15:07:21.401Z,3.93
2017-12-26T15:09:48.782Z,2.57
2017-12-26T15:12:16.170Z,2.50
2017-12-26T15:14:43.554Z,2.37
2017-12-26T15:17:10.936Z,4.30
2017-12-26T15:19:38.353Z,2.30
2017-12-26T15:22:05.788Z,1.87
2017-12-26T15:24:33.170Z,3.67
2017-12-26T15:27:00.551Z,1.63
2017-12-26T15:29:27.939Z,10.93
2017-12-26T15:31:55.331Z,2.03
2017-12-26T15:34:22.732Z,2.40
2017-12-26T15:36:50.123Z,2.20
2017-12-26T15:39:17.507Z,3.70
2017-12-26T15:41:44.915Z,1.90
2017-12-26T15:44:12.301Z,3.93
2017-12-26T15:46:39.695Z,4.23
2017-12-26T15:49:07.079Z,4.30
2017-12-26T15:51:34.471Z,4.93
2017-12-26T15:54:01.918Z,2.00
2017-12-26T15:56:29.306Z,10.17
2017-12-26T15:58:56.682Z,2.03
2017-12-26T16:01:24.070Z,3.80
2017-12-26T16:03:51.455Z,2.60
2017-12-26T16:06:18.842Z,1.87
2017-12-26T16:08:46.329Z,2.40
2017-12-26T16:11:13.704Z,1.67
2017-12-26T16:13:41.079Z,3.63
2017-12-26T16:16:08.490Z,2.80
2017-12-26T16:18:35.866Z,2.50
2017-12-26T16:21:03.309Z,1.87
2017-12-26T16:23:30.683Z,2.90
2017-12-26T16:25:58.075Z,3.40
2017-12-26T16:28:25.554Z,1.83
2017-12-26T16:30:52.959Z,2.10
2017-12-26T16:33:20.371Z,3.53
2017-12-26T16:35:47.760Z,2.50
2017-12-26T16:38:15.315Z,2.33
2017-12-26T16:40:42.703Z,1.57
2017-12-26T16:43:10.080Z,2.10
2017-12-26T16:45:37.466Z,3.63
2017-12-26T16:48:04.855Z,7.13
2017-12-26T16:50:32.231Z,2.13
2017-12-26T16:52:59.618Z,2.13
2017-12-26T16:55:27.023Z,5.13
2017-12-26T16:57:54.410Z,1.97
2017-12-26T17:00:21.792Z,1.73
2017-12-26T17:02:49.216Z,8.23
2017-12-26T17:05:16.590Z,2.10
2017-12-26T17:07:43.983Z,2.23
2017-12-26T17:10:11.370Z,2.33
2017-12-26T17:12:38.766Z,2.00
2017-12-26T17:15:06.151Z,3.43
2017-12-26T17:17:33.546Z,5.83
2017-12-26T17:20:00.918Z,2.63
2017-12-26T17:22:28.314Z,2.00
2017-12-26T17:24:55.694Z,3.00
2017-12-26T17:27:23.095Z,7.57
2017-12-26T17:29:50.537Z,2.10
2017-12-26T17:32:17.923Z,3.12
2017-12-26T17:34:45.307Z,1.53
2017-12-26T17:37:12.874Z,2.20
2017-12-26T17:39:40.258Z,5.50
2017-12-26T17:42:07.646Z,2.33
2017-12-26T17:44:35.045Z,2.10
2017-12-26T17:47:02.437Z,4.40
2017-12-26T17:49:29.811Z,6.13
2017-12-26T17:51:57.203Z,6.17
2017-12-26T17:54:24.584Z,2.47
2017-12-26T17:56:51.976Z,7.87
2017-12-26T17:59:19.350Z,7.13
2017-12-26T18:01:46.743Z,5.00
2017-12-26T18:04:14.125Z,3.77
2017-12-26T18:06:41.511Z,2.37
2017-12-26T18:09:08.901Z,3.30
2017-12-26T18:11:36.291Z,3.67
2017-12-26T18:14:03.663Z,3.37
2017-12-26T18:16:31.062Z,2.43
2017-12-26T18:18:58.440Z,5.37
2017-12-26T18:21:25.823Z,4.73
2017-12-26T18:23:53.675Z,4.37
2017-12-26T18:26:21.068Z,7.43
2017-12-26T18:31:17.034Z,3.13
2017-12-26T18:33:44.417Z,5.03
2017-12-26T18:36:11.809Z,2.90
2017-12-26T18:38:39.198Z,5.47
2017-12-26T18:41:06.582Z,5.23
2017-12-26T18:43:33.973Z,4.63
2017-12-26T18:46:01.366Z,6.10
2017-12-26T18:48:28.795Z,7.53
2017-12-26T18:50:56.159Z,2.83
2017-12-26T18:53:23.542Z,4.93
2017-12-26T18:55:50.925Z,7.23
2017-12-26T18:58:18.329Z,3.77
2017-12-26T19:00:45.710Z,3.20
2017-12-26T19:03:13.106Z,6.60
2017-12-26T19:05:40.481Z,7.23
2017-12-26T19:08:07.997Z,3.60
2017-12-26T19:10:35.359Z,5.57
2017-12-26T19:13:02.738Z,9.33
2017-12-26T19:15:30.122Z,4.87
2017-12-26T19:17:57.593Z,6.27
2017-12-26T19:20:25.029Z,3.50
2017-12-26T19:22:52.438Z,7.73
2017-12-26T19:25:19.825Z,5.13
2017-12-26T19:27:47.210Z,6.87
2017-12-26T19:30:14.600Z,12.33
2017-12-26T19:32:41.987Z,4.00
2017-12-26T19:35:09.361Z,6.53
2017-12-26T19:37:36.834Z,6.90
2017-12-26T19:40:04.210Z,9.70
2017-12-26T19:42:31.599Z,4.53
2017-12-26T19:44:58.970Z,5.47
2017-12-26T19:47:26.490Z,7.87
2017-12-26T19:49:53.878Z,10.67
2017-12-26T19:52:21.261Z,11.40
2017-12-26T19:54:48.663Z,5.10
2017-12-26T19:57:16.050Z,9.27
2017-12-26T19:59:43.430Z,3.10
2017-12-26T20:02:10.850Z,6.13
2017-12-26T20:04:38.226Z,3.73
2017-12-26T20:07:05.917Z,5.20
2017-12-26T20:09:33.339Z,5.20
2017-12-26T20:12:00.730Z,3.10
2017-12-26T20:14:28.127Z,10.27
2017-12-26T20:16:55.511Z,3.50
2017-12-26T20:19:22.890Z,4.10
2017-12-26T20:24:11.339Z,7.20
2017-12-26T20:26:38.728Z,8.33
2017-12-26T20:29:06.104Z,7.70
2017-12-26T20:31:33.600Z,5.57
2017-12-26T20:34:00.977Z,6.30
2017-12-26T20:36:28.391Z,8.00
2017-12-26T20:38:55.802Z,3.33
2017-12-26T20:41:23.206Z,7.70
2017-12-26T20:43:50.582Z,4.93
2017-12-26T20:46:17.967Z,3.00
2017-12-26T20:48:45.372Z,10.03
2017-12-26T20:51:12.759Z,10.70
2017-12-26T20:53:40.238Z,4.93
2017-12-26T20:56:07.613Z,4.77
2017-12-26T20:58:35.011Z,5.57
2017-12-26T21:01:02.402Z,4.23
2017-12-26T21:03:29.790Z,4.93
2017-12-26T21:05:57.171Z,4.03
2017-12-26T21:08:24.563Z,7.43
2017-12-26T21:10:52.029Z,5.50
2017-12-26T21:13:19.435Z,8.40
2017-12-26T21:15:46.847Z,3.80
2017-12-26T21:18:14.226Z,8.40
2017-12-26T21:20:41.610Z,5.20
2017-12-26T21:23:09.011Z,5.90
2017-12-26T21:25:36.398Z,5.67
2017-12-26T21:28:03.787Z,19.43
2017-12-26T21:30:31.258Z,5.27
2017-12-26T21:32:58.674Z,15.67
2017-12-26T21:35:26.067Z,5.13
2017-12-26T21:37:53.446Z,5.37
2017-12-26T21:40:20.849Z,3.30
2017-12-26T21:42:48.230Z,5.13
2017-12-26T21:45:15.615Z,8.43
2017-12-26T21:47:43.041Z,1.70
2017-12-26T21:50:10.499Z,4.83
2017-12-26T21:52:37.886Z,4.20
2017-12-26T21:55:05.266Z,2.17
2017-12-26T21:57:32.655Z,3.80
2017-12-26T22:00:00.051Z,5.27
2017-12-26T22:02:27.490Z,4.63
2017-12-26T22:04:54.861Z,6.43
2017-12-26T22:07:22.251Z,2.60
2017-12-26T22:09:49.682Z,3.00
2017-12-26T22:12:17.072Z,2.60
2017-12-26T22:14:44.449Z,3.77
2017-12-26T22:17:11.832Z,3.03
2017-12-26T22:19:39.243Z,3.00
2017-12-26T22:22:06.617Z,3.33
2017-12-26T22:24:34.006Z,3.40
2017-12-26T22:27:01.391Z,3.60
2017-12-26T22:29:29.087Z,10.23
2017-12-26T22:31:56.473Z,1.90
2017-12-26T22:34:23.868Z,2.03
2017-12-26T22:36:51.264Z,3.07
2017-12-26T22:39:18.667Z,1.93
2017-12-26T22:41:46.049Z,3.50
2017-12-26T22:44:13.430Z,3.47
2017-12-26T22:46:40.822Z,10.33
2017-12-26T22:49:08.426Z,4.00
2017-12-26T22:51:35.817Z,9.27
2017-12-26T22:54:03.210Z,1.63
2017-12-26T22:56:30.598Z,4.13
2017-12-26T22:58:57.991Z,4.93
2017-12-26T23:01:25.369Z,7.27
2017-12-26T23:03:52.768Z,2.37
2017-12-26T23:06:20.150Z,2.30
2017-12-26T23:08:47.548Z,2.73
2017-12-26T23:11:14.922Z,2.17
2017-12-26T23:13:42.310Z,3.73
2017-12-26T23:16:15.214Z,9.17
2017-12-26T23:18:42.611Z,3.27
2017-12-26T23:21:09.989Z,5.00
2017-12-26T23:23:43.020Z,6.07
2017-12-26T23:26:16.098Z,5.00
2017-12-26T23:28:49.069Z,2.90
2017-12-26T23:31:22.186Z,3.40
2017-12-26T23:33:55.214Z,4.43
2017-12-26T23:36:28.238Z,2.70
2017-12-26T23:39:01.202Z,15.87
2017-12-26T23:41:34.203Z,10.60
2017-12-26T23:47:09.967Z,5.17
2017-12-26T23:49:42.787Z,3.53
2017-12-26T23:52:15.776Z,9.60
2017-12-26T23:54:48.781Z,8.20
2017-12-26T23:57:21.794Z,5.33
2017-12-26T23:59:54.814Z,5.97
